Time;durP1;ratioP1;P1;durP2;ratioP2;P2;SDS_P1;SDS_P2;PMS_P1;PMS_P2;Temp;Humidity;BMP_temperature;BMP_pressure;BME280_temperature;BME280_humidity;BME280_pressure;Samples;Min_cycle;Max_cycle;Signal;HPM_P1;HPM_P2
2021/06/24 00:02:19;;;;;;;18.98;15.70;;;;;;;21.09;83.20;98290.32;1750770;80;28014;-87
2021/06/24 00:04:45;;;;;;;19.62;15.58;;;;;;;21.12;83.26;98292.61;1754726;80;28071;-87
2021/06/24 00:07:12;;;;;;;18.45;12.80;;;;;;;21.11;83.32;98289.13;1754958;81;28134;-87
2021/06/24 00:09:38;;;;;;;16.27;13.83;;;;;;;21.10;83.39;98283.50;1753508;81;28086;-87
2021/06/24 00:12:05;;;;;;;17.02;13.43;;;;;;;21.16;83.44;98281.99;1748671;80;28104;-87
2021/06/24 00:14:34;;;;;;;16.90;13.18;;;;;;;21.27;83.50;98291.70;1755279;81;28154;-87
2021/06/24 00:17:04;;;;;;;17.75;14.23;;;;;;;21.33;83.55;98277.38;1748097;80;28186;-88
2021/06/24 00:19:30;;;;;;;18.70;14.38;;;;;;;21.27;83.54;98270.40;1770747;79;28110;-87
2021/06/24 00:21:57;;;;;;;17.67;14.15;;;;;;;21.21;83.52;98251.17;1758012;81;28000;-88
2021/06/24 00:24:23;;;;;;;17.02;12.85;;;;;;;21.16;83.55;98236.25;1748055;81;28006;-87
2021/06/24 00:26:50;;;;;;;20.68;14.25;;;;;;;21.12;83.57;98237.55;1747685;80;28062;-87
2021/06/24 00:29:16;;;;;;;17.10;13.68;;;;;;;21.09;83.59;98235.77;1752696;81;28030;-87
2021/06/24 00:31:45;;;;;;;18.17;14.10;;;;;;;21.04;83.61;98228.32;1746341;81;28162;-87
2021/06/24 00:34:14;;;;;;;17.85;13.60;;;;;;;21.01;83.62;98216.69;1752509;81;28081;-87
2021/06/24 00:36:41;;;;;;;22.42;15.00;;;;;;;20.98;83.65;98221.05;1753419;80;28106;-87
2021/06/24 00:39:07;;;;;;;19.15;15.13;;;;;;;21.01;83.71;98220.67;1744916;81;28175;-87
2021/06/24 00:41:36;;;;;;;18.20;14.75;;;;;;;20.98;83.75;98214.39;1751884;81;28028;-87
2021/06/24 00:44:02;;;;;;;23.35;15.28;;;;;;;20.91;83.76;98197.48;1750278;81;28100;-87
2021/06/24 00:46:29;;;;;;;20.85;15.70;;;;;;;20.81;83.79;98198.23;1748795;80;28081;-87
2021/06/24 00:48:58;;;;;;;26.97;17.55;;;;;;;20.76;83.80;98202.75;1756734;81;28174;-87
2021/06/24 00:51:24;;;;;;;23.32;16.77;;;;;;;20.73;83.86;98204.95;1752196;81;28141;-87
2021/06/24 00:53:51;;;;;;;21.27;17.00;;;;;;;20.80;83.96;98222.66;1750246;80;28054;-87
2021/06/24 00:56:27;;;;;;;22.20;17.12;;;;;;;20.80;84.04;98214.69;1748587;81;28081;-87
2021/06/24 00:58:55;;;;;;;26.55;18.35;;;;;;;20.79;84.11;98214.35;1749832;81;28232;-88
2021/06/24 01:01:24;;;;;;;24.27;17.17;;;;;;;20.74;84.20;98207.91;1753003;81;28262;-88
2021/06/24 01:03:51;;;;;;;23.42;16.95;;;;;;;20.74;84.28;98212.73;1745655;81;28468;-88
2021/06/24 01:06:21;;;;;;;21.42;16.25;;;;;;;20.76;84.36;98215.22;1745916;80;28023;-88
2021/06/24 01:08:45;;;;;;;23.00;16.75;;;;;;;20.74;84.41;98212.73;1755039;79;28055;-88
2021/06/24 01:11:12;;;;;;;21.27;17.20;;;;;;;20.75;84.49;98217.55;1750379;80;28062;-89
2021/06/24 01:13:39;;;;;;;21.77;16.85;;;;;;;20.76;84.55;98220.04;1741135;81;28091;-88
2021/06/24 01:16:08;;;;;;;19.95;14.93;;;;;;;20.82;84.65;98214.52;1746415;81;28033;-88
2021/06/24 01:18:39;;;;;;;26.45;17.25;;;;;;;20.93;84.70;98215.44;1738894;81;28101;-88
2021/06/24 01:21:07;;;;;;;21.50;15.53;;;;;;;21.03;84.75;98219.17;1743610;81;28022;-88
2021/06/24 01:23:42;;;;;;;23.62;16.62;;;;;;;21.11;84.78;98225.25;1743947;81;28076;-88
2021/06/24 01:26:09;;;;;;;21.25;15.78;;;;;;;21.10;84.80;98222.29;1743776;81;28124;-88
2021/06/24 01:28:40;;;;;;;21.62;16.50;;;;;;;21.09;84.76;98210.48;1752431;81;28012;-88
2021/06/24 01:31:10;;;;;;;20.23;15.75;;;;;;;21.09;84.73;98205.99;1749155;81;28012;-88
2021/06/24 01:33:37;;;;;;;23.60;16.52;;;;;;;21.06;84.67;98201.02;1755316;80;28079;-88
2021/06/24 01:36:05;;;;;;;19.27;15.15;;;;;;;21.06;84.66;98191.70;1740524;81;28004;-88
2021/06/24 01:38:36;;;;;;;19.25;15.48;;;;;;;20.96;84.62;98180.48;1743014;81;28125;-88
2021/06/24 01:41:05;;;;;;;19.67;14.87;;;;;;;20.86;84.59;98166.09;1748725;80;28060;-88
2021/06/24 01:43:32;;;;;;;18.65;13.13;;;;;;;20.77;84.59;98154.38;1746752;81;28051;-88
2021/06/24 01:45:59;;;;;;;19.52;13.22;;;;;;;20.69;84.57;98158.41;1749614;81;28110;-88
2021/06/24 01:48:28;;;;;;;21.90;14.40;;;;;;;20.66;84.60;98160.11;1744984;80;28068;-88
2021/06/24 01:50:57;;;;;;;23.65;14.98;;;;;;;20.72;84.62;98167.38;1751430;81;28022;-87
2021/06/24 01:53:26;;;;;;;20.55;15.48;;;;;;;20.80;84.64;98181.94;1749396;80;28504;-88
2021/06/24 01:55:54;;;;;;;20.50;14.83;;;;;;;20.80;84.65;98181.44;1747435;81;28040;-88
2021/06/24 01:58:23;;;;;;;19.20;15.15;;;;;;;20.81;84.63;98184.92;1741845;81;28164;-88
2021/06/24 02:00:53;;;;;;;19.25;13.90;;;;;;;20.80;84.62;98180.60;1748040;81;28055;-88
2021/06/24 02:03:20;;;;;;;19.07;15.18;;;;;;;20.80;84.61;98189.91;1747939;80;28068;-88
2021/06/24 02:05:49;;;;;;;19.42;15.50;;;;;;;20.77;84.61;98189.78;1746205;81;28103;-88
2021/06/24 02:08:20;;;;;;;22.40;16.25;;;;;;;20.73;84.56;98183.67;1749210;81;28102;-87
2021/06/24 02:10:47;;;;;;;21.68;15.80;;;;;;;20.70;84.58;98187.50;1747023;81;28088;-87
2021/06/24 02:13:14;;;;;;;23.10;17.17;;;;;;;20.74;84.55;98178.66;1748193;81;28150;-88
2021/06/24 02:15:42;;;;;;;24.15;16.15;;;;;;;20.67;84.54;98173.73;1743604;81;28163;-88
2021/06/24 02:18:09;;;;;;;23.27;16.30;;;;;;;20.65;84.54;98183.71;1743425;81;28095;-88
2021/06/24 02:20:39;;;;;;;21.75;16.67;;;;;;;20.70;84.56;98177.36;1747819;80;28074;-88
2021/06/24 02:23:06;;;;;;;24.07;16.40;;;;;;;20.66;84.56;98172.08;1746983;81;28171;-88
2021/06/24 02:25:33;;;;;;;24.05;17.02;;;;;;;20.56;84.54;98164.34;1747403;81;28064;-88
2021/06/24 02:27:59;;;;;;;20.27;14.93;;;;;;;20.51;84.55;98155.23;1744809;81;28057;-88
2021/06/24 02:30:27;;;;;;;16.93;13.78;;;;;;;20.42;84.56;98150.45;1751272;81;28075;-88
2021/06/24 02:32:53;;;;;;;19.92;14.28;;;;;;;20.37;84.56;98152.31;1746094;81;28078;-88
2021/06/24 02:35:21;;;;;;;19.60;14.30;;;;;;;20.41;84.61;98154.94;1728301;81;28195;-88
2021/06/24 02:37:49;;;;;;;18.45;14.83;;;;;;;20.46;84.65;98143.77;1742883;80;28093;-88
2021/06/24 02:40:18;;;;;;;20.72;15.45;;;;;;;20.45;84.66;98147.46;1743082;81;28228;-88
2021/06/24 02:42:45;;;;;;;21.93;15.38;;;;;;;20.49;84.67;98146.59;1742713;81;28010;-88
2021/06/24 02:45:14;;;;;;;23.75;16.57;;;;;;;20.55;84.70;98148.55;1743655;81;28131;-88
2021/06/24 02:47:41;;;;;;;26.35;16.42;;;;;;;20.64;84.70;98154.13;1742424;81;28060;-88
2021/06/24 02:50:17;;;;;;;23.95;16.10;;;;;;;20.66;84.69;98162.27;1750419;80;28188;-88
2021/06/24 02:52:43;;;;;;;18.85;15.43;;;;;;;20.65;84.67;98178.39;1748458;81;28095;-87
2021/06/24 02:55:12;;;;;;;17.87;14.40;;;;;;;20.58;84.59;98184.08;1747496;81;28112;-88
2021/06/24 02:57:38;;;;;;;22.27;15.65;;;;;;;20.54;84.54;98183.62;1742655;81;28153;-87
2021/06/24 03:00:10;;;;;;;20.65;15.88;;;;;;;20.50;84.47;98185.48;1749691;80;27987;-87
2021/06/24 03:02:37;;;;;;;21.90;15.95;;;;;;;20.48;84.43;98178.17;1762861;79;28007;-87
2021/06/24 03:05:05;;;;;;;21.05;16.93;;;;;;;20.50;84.41;98174.34;1702191;81;28158;-87
2021/06/24 03:07:32;;;;;;;25.62;18.57;;;;;;;20.53;84.39;98163.84;1748856;81;28083;-87
2021/06/24 03:09:59;;;;;;;27.22;18.23;;;;;;;20.52;84.38;98175.48;1742639;80;28126;-88
2021/06/24 03:12:26;;;;;;;26.27;18.00;;;;;;;20.51;84.39;98183.16;1746924;81;28080;-87
2021/06/24 03:14:57;;;;;;;26.30;19.10;;;;;;;20.49;84.43;98175.34;1746803;80;28165;-87
2021/06/24 03:17:23;;;;;;;28.07;18.27;;;;;;;20.49;84.43;98175.84;1746280;81;28109;-87
2021/06/24 03:19:50;;;;;;;26.73;18.82;;;;;;;20.48;84.50;98172.36;1741313;80;28072;-87
2021/06/24 03:25:18;;;;;;;28.30;18.52;;;;;;;20.42;84.57;98181.03;1658132;86;28094;-87
2021/06/24 03:27:44;;;;;;;24.23;18.00;;;;;;;20.37;84.65;98186.87;1657451;86;28110;-87
2021/06/24 03:30:14;;;;;;;26.48;18.92;;;;;;;20.36;84.71;98183.88;1654296;86;28186;-87
2021/06/24 03:32:40;;;;;;;23.95;17.50;;;;;;;20.36;84.78;98183.05;1654519;86;28024;-88
2021/06/24 03:35:08;;;;;;;26.40;17.98;;;;;;;20.31;84.83;98168.97;1654322;86;28169;-87
2021/06/24 03:37:35;;;;;;;25.85;18.10;;;;;;;20.25;84.90;98175.44;1657413;86;28127;-87
2021/06/24 03:40:07;;;;;;;25.25;19.02;;;;;;;20.24;84.96;98175.94;1660893;86;28285;-87
2021/06/24 03:42:33;;;;;;;25.48;19.73;;;;;;;20.33;85.06;98184.25;1657754;86;28043;-87
2021/06/24 03:45:01;;;;;;;26.15;19.65;;;;;;;20.38;85.12;98195.18;1654560;86;28094;-87
2021/06/24 03:47:30;;;;;;;28.70;19.10;;;;;;;20.40;85.23;98205.65;1655775;86;28116;-88
2021/06/24 03:49:56;;;;;;;23.40;17.92;;;;;;;20.38;85.30;98203.66;1656754;85;28094;-88
2021/06/24 03:52:22;;;;;;;28.70;19.02;;;;;;;20.32;85.37;98210.49;1653280;86;28086;-88
2021/06/24 03:54:49;;;;;;;24.40;19.07;;;;;;;20.30;85.45;98217.77;1657407;84;28115;-88
2021/06/24 03:57:15;;;;;;;27.87;19.82;;;;;;;20.28;85.56;98222.45;1656066;86;28090;-88
2021/06/24 03:59:42;;;;;;;27.95;18.95;;;;;;;20.26;85.65;98225.77;1656123;86;28017;-88
2021/06/24 04:02:09;;;;;;;31.45;20.55;;;;;;;20.26;85.75;98227.59;1658921;86;28084;-88
2021/06/24 04:04:41;;;;;;;25.88;19.07;;;;;;;20.27;85.85;98231.91;1657683;86;28092;-87
2021/06/24 04:07:07;;;;;;;21.07;14.18;;;;;;;20.25;85.93;98229.42;1656617;86;28074;-88
2021/06/24 04:09:34;;;;;;;26.25;19.00;;;;;;;20.30;86.06;98225.74;1680194;83;28047;-87
2021/06/24 04:12:00;;;;;;;24.92;18.80;;;;;;;20.32;86.14;98225.11;1658071;86;28107;-87
2021/06/24 04:14:29;;;;;;;23.25;19.25;;;;;;;20.34;86.28;98224.95;1657792;85;28055;-87
2021/06/24 04:16:55;;;;;;;23.83;18.57;;;;;;;20.36;86.37;98218.44;1658196;86;28115;-88
2021/06/24 04:19:28;;;;;;;25.95;18.17;;;;;;;20.42;86.47;98211.59;1661839;85;28152;-88
2021/06/24 04:21:55;;;;;;;24.23;17.98;;;;;;;20.46;86.58;98209.73;1657691;84;28115;-87
2021/06/24 04:24:22;;;;;;;26.33;18.92;;;;;;;20.52;86.67;98213.53;1673850;83;28142;-88
2021/06/24 04:26:52;;;;;;;25.02;17.55;;;;;;;20.58;86.73;98216.82;1687901;84;28088;-88
2021/06/24 04:29:16;;;;;;;29.48;18.75;;;;;;;20.64;86.80;98214.79;1687327;84;28196;-88
2021/06/24 04:31:43;;;;;;;27.15;19.42;;;;;;;20.69;86.89;98219.58;1687611;84;28084;-88
2021/06/24 04:34:15;;;;;;;26.30;19.85;;;;;;;20.72;86.95;98215.25;1649911;84;28023;-88
2021/06/24 04:36:45;;;;;;;26.12;19.62;;;;;;;20.74;87.01;98226.52;1690939;83;28029;-88
2021/06/24 04:39:12;;;;;;;26.00;19.87;;;;;;;20.74;87.09;98231.34;1689660;84;28086;-88
2021/06/24 04:41:42;;;;;;;28.57;19.95;;;;;;;20.76;87.14;98232.50;1690815;83;28023;-88
2021/06/24 04:44:08;;;;;;;27.00;20.23;;;;;;;20.75;87.16;98254.78;1691524;84;28090;-88
2021/06/24 04:46:34;;;;;;;27.77;20.20;;;;;;;20.73;87.20;98262.93;1687908;84;28127;-88
2021/06/24 04:49:01;;;;;;;31.45;19.85;;;;;;;20.72;87.25;98260.47;1690579;84;28090;-88
2021/06/24 04:51:27;;;;;;;29.20;19.23;;;;;;;20.69;87.28;98266.12;1689809;83;28086;-88
2021/06/24 04:53:54;;;;;;;29.23;19.70;;;;;;;20.65;87.32;98282.11;1688840;84;28252;-88
2021/06/24 04:56:24;;;;;;;26.27;19.02;;;;;;;20.61;87.36;98283.47;1689002;84;28079;-88
2021/06/24 04:58:51;;;;;;;23.62;18.05;;;;;;;20.60;87.38;98277.81;1690211;84;28095;-89
2021/06/24 05:01:17;;;;;;;27.75;19.35;;;;;;;20.60;87.43;98277.81;1687571;84;28101;-88
2021/06/24 05:03:43;;;;;;;28.50;19.25;;;;;;;20.59;87.49;98278.31;1688219;84;28183;-89
2021/06/24 05:06:15;;;;;;;31.12;18.30;;;;;;;20.60;87.55;98281.80;1686479;84;28059;-88
2021/06/24 05:08:45;;;;;;;28.17;19.15;;;;;;;20.62;87.61;98283.80;1685292;84;28067;-88
2021/06/24 05:11:15;;;;;;;29.70;20.85;;;;;;;20.61;87.66;98269.67;1685297;84;28175;-88
2021/06/24 05:13:42;;;;;;;29.77;20.55;;;;;;;20.64;87.73;98275.95;1688355;84;28028;-88
2021/06/24 05:16:08;;;;;;;30.52;20.32;;;;;;;20.67;87.81;98286.27;1686848;84;28082;-87
2021/06/24 05:18:35;;;;;;;28.75;20.00;;;;;;;20.71;87.87;98276.09;1689089;84;28084;-88
2021/06/24 05:21:03;;;;;;;28.75;20.90;;;;;;;20.76;87.89;98279.05;1689016;83;28098;-88
2021/06/24 05:23:30;;;;;;;26.12;19.98;;;;;;;20.82;87.95;98275.70;1689460;83;28091;-87
2021/06/24 05:25:56;;;;;;;27.55;20.72;;;;;;;20.86;88.04;98276.99;1703430;83;28114;-88
2021/06/24 05:28:23;;;;;;;32.20;22.50;;;;;;;20.91;88.07;98281.28;1693433;83;28098;-88
2021/06/24 05:30:49;;;;;;;32.67;21.55;;;;;;;20.95;88.09;98289.23;1699442;83;28150;-88
2021/06/24 05:33:16;;;;;;;34.18;21.77;;;;;;;20.95;88.12;98290.56;1697894;83;28097;-88
2021/06/24 05:35:46;;;;;;;27.25;21.45;;;;;;;20.99;88.14;98281.24;1693971;83;28019;-88
2021/06/24 05:38:16;;;;;;;32.40;22.90;;;;;;;21.00;88.15;98288.20;1690926;83;28078;-88
2021/06/24 05:40:48;;;;;;;35.98;23.73;;;;;;;21.04;88.17;98286.03;1693269;83;28103;-88
2021/06/24 05:43:18;;;;;;;30.60;21.35;;;;;;;21.04;88.19;98287.36;1696490;82;28138;-88
2021/06/24 05:45:44;;;;;;;30.77;22.48;;;;;;;21.04;88.17;98282.88;1697966;83;28167;-88
2021/06/24 05:48:11;;;;;;;34.85;22.62;;;;;;;21.05;88.16;98281.05;1697388;83;28028;-88
2021/06/24 05:50:37;;;;;;;32.53;23.05;;;;;;;21.05;88.13;98281.05;1698586;83;28080;-88
2021/06/24 05:53:04;;;;;;;32.00;22.17;;;;;;;21.09;88.14;98274.35;1703041;83;28074;-88
2021/06/24 05:58:27;;;;;;;31.62;22.58;;;;;;;21.12;88.10;98280.64;1702588;83;28084;-88
2021/06/24 06:00:56;;;;;;;29.23;20.08;;;;;;;21.14;88.09;98287.95;1716118;82;28017;-88
2021/06/24 06:03:24;;;;;;;27.55;18.82;;;;;;;21.08;88.03;98286.00;1698537;83;28053;-87
2021/06/24 06:05:52;;;;;;;26.37;17.12;;;;;;;21.06;88.00;98291.48;1693000;83;28028;-88
2021/06/24 06:08:19;;;;;;;23.55;17.15;;;;;;;21.02;87.94;98282.70;1699350;83;28103;-88
2021/06/24 06:10:46;;;;;;;25.70;17.77;;;;;;;20.95;87.87;98277.26;1693418;83;28130;-87
2021/06/24 06:13:13;;;;;;;31.62;18.65;;;;;;;20.91;87.77;98279.95;1698073;83;28086;-88
2021/06/24 06:15:48;;;;;;;32.55;19.12;;;;;;;20.82;87.68;98279.19;1701007;83;28033;-88
2021/06/24 06:18:25;;;;;;;25.97;17.45;;;;;;;20.73;87.58;98266.92;1698763;83;28219;-88
2021/06/24 06:20:58;;;;;;;26.07;17.42;;;;;;;20.74;87.52;98278.39;1698777;83;28001;-88
2021/06/24 06:23:26;;;;;;;;;;;;;;;20.74;87.51;98271.24;1705391;83;28141;-88
2021/06/24 06:25:55;;;;;;;;;;;;;;;20.79;87.48;98265.39;1663683;83;20171;-88
2021/06/24 06:28:24;;;;;;;;;;;;;;;20.77;87.47;98272.73;1657184;84;24870;-88
2021/06/24 06:30:51;;;;;;;;;;;;;;;20.73;87.44;98272.23;1663077;84;22003;-88
2021/06/24 06:33:19;;;;;;;;;;;;;;;20.71;87.42;98276.92;1652678;84;26012;-88
2021/06/24 06:35:46;;;;;;;;;;;;;;;20.72;87.41;98271.11;1650913;83;23986;-88
2021/06/24 06:38:12;;;;;;;;;;;;;;;20.79;87.42;98268.05;1650656;84;20354;-88
2021/06/24 06:40:39;;;;;;;;;;;;;;;20.83;87.44;98262.23;1663738;83;24825;-88
2021/06/24 06:43:05;;;;;;;;;;;;;;;20.89;87.44;98259.37;1653072;84;21996;-88
2021/06/24 06:45:33;;;;;;;;;;;;;;;20.95;87.48;98256.50;1647775;84;26012;-88
2021/06/24 06:47:59;;;;;;;;;;;;;;;20.91;87.51;98247.20;1644327;84;24468;-88
2021/06/24 06:50:25;;;;;;;;;;;;;;;20.88;87.48;98239.08;1643485;84;20163;-88
2021/06/24 06:52:51;;;;;;;;;;;;;;;20.88;87.47;98237.25;1646864;84;24758;-89
2021/06/24 06:55:17;;;;;;;;;;;;;;;20.91;87.49;98241.88;1641732;84;21982;-88
2021/06/24 06:57:43;;;;;;;;;;;;;;;20.95;87.49;98246.66;1651394;84;25982;-88
2021/06/24 07:00:10;;;;;;;;;;;;;;;20.98;87.48;98240.17;1649567;84;24544;-88
2021/06/24 07:02:37;;;;;;;;;;;;;;;20.97;87.50;98236.68;1652686;84;20484;-88
2021/06/24 07:05:03;;;;;;;;;;;;;;;21.00;87.51;98228.86;1669736;84;24766;-88
2021/06/24 07:07:30;;;;;;;;;;;;;;;21.03;87.51;98229.32;1655754;84;21988;-88
2021/06/24 07:09:57;;;;;;;;;;;;;;;21.09;87.55;98234.44;1647770;84;26899;-88
2021/06/24 07:12:25;;;;;;;;;;;;;;;21.12;87.56;98230.91;1655713;84;202821;-88
2021/06/24 07:14:51;;;;;;;;;;;;;;;21.22;87.59;98229.38;1666432;84;20287;-88
2021/06/24 07:17:21;;;;;;;37.05;23.02;;;;;;;21.23;87.60;98235.00;1646571;84;24803;-88
2021/06/24 07:19:47;;;;;;;35.63;22.58;;;;;;;21.29;87.62;98231.13;1646777;84;28094;-88
2021/06/24 07:22:13;;;;;;;31.30;20.82;;;;;;;21.37;87.62;98228.08;1652900;84;28033;-88
2021/06/24 07:24:40;;;;;;;39.27;23.80;;;;;;;21.40;87.67;98222.38;1633689;85;28191;-88
2021/06/24 07:27:07;;;;;;;32.85;20.82;;;;;;;21.39;87.62;98220.22;1691572;84;28094;-88
2021/06/24 07:29:33;;;;;;;38.53;23.40;;;;;;;21.39;87.63;98220.22;1689606;83;28051;-88
2021/06/24 07:32:03;;;;;;;40.55;24.92;;;;;;;21.41;87.58;98218.22;1694967;84;28072;-88
2021/06/24 07:34:29;;;;;;;39.05;24.70;;;;;;;21.47;87.60;98215.34;1687983;84;28053;-88
2021/06/24 07:36:55;;;;;;;43.95;25.32;;;;;;;21.60;87.65;98221.67;1688413;83;28176;-88
2021/06/24 07:39:24;;;;;;;34.55;22.40;;;;;;;21.66;87.66;98223.61;1690349;84;28017;-88
2021/06/24 07:41:50;;;;;;;43.45;25.30;;;;;;;21.67;87.64;98225.27;1692599;83;28162;-88
2021/06/24 07:44:16;;;;;;;45.65;24.02;;;;;;;21.74;87.63;98227.21;1689631;83;28122;-88
2021/06/24 07:46:45;;;;;;;38.78;25.10;;;;;;;21.81;87.61;98229.48;1690876;84;27999;-88
2021/06/24 07:49:11;;;;;;;39.90;25.05;;;;;;;21.90;87.62;98235.03;1688439;84;28117;-89
2021/06/24 07:51:41;;;;;;;43.75;24.43;;;;;;;21.97;87.59;98238.16;1689595;84;28102;-88
2021/06/24 07:54:07;;;;;;;42.85;25.85;;;;;;;22.05;87.59;98227.38;1684673;83;28098;-88
2021/06/24 07:56:34;;;;;;;41.65;26.17;;;;;;;22.15;87.55;98223.09;1687962;83;28364;-88
2021/06/24 07:59:11;;;;;;;47.50;26.93;;;;;;;22.29;87.54;98228.10;1699388;82;28097;-89
2021/06/24 08:01:38;;;;;;;48.68;27.73;;;;;;;22.40;87.57;98231.13;1688374;83;28100;-88
2021/06/24 08:04:11;;;;;;;39.95;25.30;;;;;;;22.54;87.53;98232.09;1689829;84;28192;-88
2021/06/24 08:06:43;;;;;;;45.98;26.70;;;;;;;22.67;87.55;98236.25;1682764;84;28194;-88
2021/06/24 08:09:11;;;;;;;45.75;26.80;;;;;;;22.69;87.47;98234.23;1691693;84;28134;-88
2021/06/24 08:11:38;;;;;;;45.65;27.25;;;;;;;22.78;87.43;98237.63;1693347;84;28176;-89
2021/06/24 08:14:04;;;;;;;47.45;27.73;;;;;;;22.86;87.36;98234.83;1685858;83;28112;-89
2021/06/24 08:16:35;;;;;;;43.25;28.38;;;;;;;22.87;87.28;98235.15;1690633;84;28067;-88
2021/06/24 08:19:03;;;;;;;44.88;28.65;;;;;;;22.99;87.20;98234.97;1692396;84;28030;-88
2021/06/24 08:21:30;;;;;;;43.80;28.25;;;;;;;23.17;87.16;98234.03;1692598;84;28026;-89
2021/06/24 08:24:00;;;;;;;47.40;30.30;;;;;;;23.30;87.10;98235.46;1704851;82;28173;-88
2021/06/24 08:26:32;;;;;;;48.60;29.02;;;;;;;23.42;87.04;98229.09;1680385;83;28132;-88
2021/06/24 08:29:01;;;;;;;53.87;30.80;;;;;;;23.51;86.93;98224.48;1671200;84;28064;-88
2021/06/24 08:31:36;;;;;;;47.48;28.70;;;;;;;23.61;86.84;98223.12;1680828;83;28158;-89
2021/06/24 08:34:02;;;;;;;48.92;30.35;;;;;;;23.72;86.76;98221.25;1687278;83;28062;-88
2021/06/24 08:36:29;;;;;;;42.30;27.85;;;;;;;23.88;86.69;98226.79;1668956;83;28079;-89
2021/06/24 08:38:55;;;;;;;44.45;29.90;;;;;;;23.95;86.53;98219.61;1663394;84;28203;-88
2021/06/24 08:41:25;;;;;;;42.25;27.73;;;;;;;23.96;86.33;98221.27;1660195;84;27997;-88
2021/06/24 08:43:51;;;;;;;44.23;29.05;;;;;;;24.07;86.22;98226.06;1659694;84;28092;-88
2021/06/24 08:46:20;;;;;;;45.83;29.10;;;;;;;24.08;85.99;98223.70;1663820;84;28092;-89
2021/06/24 08:48:47;;;;;;;40.67;26.07;;;;;;;24.13;85.81;98221.27;1667236;84;28111;-89
2021/06/24 08:51:13;;;;;;;41.73;26.97;;;;;;;24.20;85.68;98217.83;1673870;84;28067;-89
2021/06/24 08:53:41;;;;;;;41.60;28.12;;;;;;;24.23;85.47;98218.75;1682447;84;28214;-89
2021/06/24 08:56:12;;;;;;;42.00;27.13;;;;;;;24.27;85.31;98214.17;1670068;84;28106;-89
2021/06/24 08:58:40;;;;;;;40.88;26.33;;;;;;;24.35;85.15;98220.67;1659187;84;28101;-88
2021/06/24 09:01:12;;;;;;;36.33;24.90;;;;;;;24.39;85.00;98215.23;1671329;83;28071;-89
2021/06/24 09:03:40;;;;;;;36.23;26.17;;;;;;;24.34;84.76;98218.19;1681466;84;28175;-89
2021/06/24 09:06:09;;;;;;;42.15;26.90;;;;;;;24.27;84.51;98225.38;1679487;84;28057;-88
2021/06/24 09:08:41;;;;;;;38.15;26.62;;;;;;;24.24;84.33;98225.25;1675222;84;28192;-88
2021/06/24 09:11:22;;;;;;;34.38;23.65;;;;;;;24.28;84.19;98221.66;1676461;84;28115;-88
2021/06/24 09:14:04;;;;;;;37.05;23.85;;;;;;;24.33;84.11;98223.25;1670022;84;28040;-89
2021/06/24 09:16:37;;;;;;;34.20;23.22;;;;;;;24.33;83.95;98220.58;1668664;84;28062;-89
2021/06/24 09:19:16;;;;;;;33.15;23.60;;;;;;;24.32;83.73;98225.61;1668676;84;28067;-89
2021/06/24 09:21:45;;;;;;;36.95;23.77;;;;;;;24.33;83.58;98217.36;1674567;84;28178;-89
2021/06/24 09:24:24;;;;;;;38.90;25.80;;;;;;;24.37;83.45;98215.13;1670977;84;28115;-86
2021/06/24 09:26:51;;;;;;;35.63;23.65;;;;;;;24.41;83.30;98216.38;1679971;84;28162;-88
2021/06/24 09:29:18;;;;;;;36.38;24.70;;;;;;;24.56;83.26;98215.19;1687311;84;28077;-89
2021/06/24 09:31:54;;;;;;;32.15;21.87;;;;;;;24.66;83.21;98214.80;1691980;84;28142;-89
2021/06/24 09:34:23;;;;;;;34.35;22.77;;;;;;;24.73;83.14;98209.47;1690573;84;28063;-88
2021/06/24 09:36:51;;;;;;;31.05;21.97;;;;;;;24.80;83.00;98213.00;1688278;84;28031;-88
2021/06/24 09:39:24;;;;;;;35.50;24.57;;;;;;;24.84;82.85;98211.05;1694540;84;28086;-88
2021/06/24 09:42:09;;;;;;;31.82;22.62;;;;;;;24.89;82.66;98211.80;1689946;84;28151;-88
2021/06/24 09:44:38;;;;;;;36.28;23.92;;;;;;;25.03;82.58;98210.81;1685091;84;28144;-88
2021/06/24 09:47:29;;;;;;;36.42;24.18;;;;;;;25.16;82.53;98206.78;1688079;84;28116;-88
2021/06/24 09:50:00;;;;;;;;;;;;;;;25.23;82.42;98201.44;1699556;83;28147;-88
2021/06/24 09:52:34;;;;;;;39.23;24.40;;;;;;;25.26;82.22;98203.18;1686429;84;26066;-88
2021/06/24 09:55:06;;;;;;;35.43;23.55;;;;;;;25.28;81.97;98200.30;1684520;84;28072;-88
2021/06/24 09:57:33;;;;;;;34.90;23.70;;;;;;;25.40;81.92;98198.14;1688303;84;28118;-88
2021/06/24 10:00:19;;;;;;;34.83;23.92;;;;;;;25.58;81.94;98196.73;1696028;83;28069;-88
2021/06/24 10:03:12;;;;;;;36.10;23.42;;;;;;;25.70;81.87;98192.35;1685451;84;28135;-88
2021/06/24 10:05:40;;;;;;;29.52;19.15;;;;;;;25.82;81.75;98194.19;1685025;84;28068;-88
2021/06/24 10:08:08;;;;;;;38.20;24.70;;;;;;;25.91;81.68;98188.62;1691407;84;28085;-89
2021/06/24 10:10:36;;;;;;;37.73;24.35;;;;;;;25.92;81.45;98195.09;1684476;84;28142;-90
2021/06/24 10:13:06;;;;;;;40.17;25.48;;;;;;;26.02;81.34;98191.98;1701290;83;28065;-88
2021/06/24 10:15:33;;;;;;;36.48;24.20;;;;;;;26.16;81.32;98196.27;1684895;84;28079;-88
2021/06/24 10:18:00;;;;;;;34.05;22.45;;;;;;;26.36;81.30;98194.86;1686991;84;28106;-88
2021/06/24 10:20:29;;;;;;;31.23;23.57;;;;;;;26.44;81.19;98198.66;1692523;84;28041;-88
2021/06/24 10:23:02;;;;;;;37.98;24.47;;;;;;;26.56;81.06;98195.09;1691811;83;28100;-88
2021/06/24 10:25:29;;;;;;;31.65;21.97;;;;;;;26.56;80.77;98190.24;1688172;84;28141;-88
2021/06/24 10:27:58;;;;;;;30.02;21.10;;;;;;;26.70;80.61;98189.12;1687153;83;28170;-88
2021/06/24 10:30:37;;;;;;;30.60;20.90;;;;;;;26.75;80.40;98185.27;1684416;84;28100;-88
2021/06/24 10:33:12;;;;;;;30.37;21.95;;;;;;;26.85;80.23;98188.29;1693181;84;28039;-88
2021/06/24 10:35:42;;;;;;;30.82;20.35;;;;;;;26.87;79.95;98189.43;1687301;84;28223;-88
2021/06/24 10:38:13;;;;;;;34.48;22.77;;;;;;;26.95;79.83;98192.69;1689478;84;28094;-88
2021/06/24 10:40:45;;;;;;;29.50;21.68;;;;;;;27.00;79.60;98179.98;1696889;84;28166;-88
2021/06/24 10:43:13;;;;;;;28.77;22.20;;;;;;;27.03;79.34;98178.19;1685510;83;28091;-88
2021/06/24 10:45:42;;;;;;;32.53;21.70;;;;;;;27.17;79.24;98172.17;1688887;84;28078;-88
2021/06/24 10:48:26;;;;;;;28.67;20.08;;;;;;;27.32;79.16;98167.31;1686820;83;28059;-88
2021/06/24 10:51:07;;;;;;;31.45;21.33;;;;;;;27.34;78.92;98167.38;1689953;84;28080;-87
2021/06/24 10:53:36;;;;;;;33.23;21.97;;;;;;;27.36;78.69;98162.62;1688647;84;28071;-87
2021/06/24 10:56:21;;;;;;;31.10;20.08;;;;;;;27.44;78.50;98165.01;1690882;84;28006;-87
2021/06/24 10:58:48;;;;;;;33.05;21.87;;;;;;;27.45;78.27;98165.31;1679428;84;28224;-87
2021/06/24 11:01:14;;;;;;;28.35;22.35;;;;;;;27.43;77.95;98150.47;1685010;84;28097;-89
2021/06/24 11:03:43;;;;;;;25.95;18.90;;;;;;;27.52;77.84;98146.47;1685469;84;28014;-89
2021/06/24 11:06:15;;;;;;;26.48;18.90;;;;;;;27.59;77.68;98149.09;1691473;83;28067;-89
2021/06/24 11:08:43;;;;;;;28.98;18.55;;;;;;;27.67;77.43;98150.14;1687373;84;27996;-90
2021/06/24 11:11:17;;;;;;;24.20;17.87;;;;;;;27.79;77.10;98153.22;1694973;84;28161;-89
2021/06/24 11:13:49;;;;;;;26.57;19.23;;;;;;;27.83;76.76;98140.13;1707836;81;28217;-89
2021/06/24 11:16:20;;;;;;;24.23;18.27;;;;;;;27.91;76.58;98141.20;1651995;85;28067;-89
2021/06/24 11:18:49;;;;;;;24.30;18.65;;;;;;;27.97;76.34;98141.64;1626169;86;28095;-90
2021/06/24 11:21:21;;;;;;;24.87;18.12;;;;;;;28.02;76.09;98135.58;1689008;84;28108;-90
2021/06/24 11:23:55;;;;;;;26.95;19.15;;;;;;;28.09;75.89;98145.23;1686653;84;28063;-89
2021/06/24 11:26:28;;;;;;;24.45;18.27;;;;;;;28.21;75.82;98142.08;1694011;82;28118;-90
2021/06/24 11:29:09;;;;;;;29.20;19.57;;;;;;;28.33;75.63;98135.94;1693214;84;28080;-90
2021/06/24 11:31:58;;;;;;;30.68;20.50;;;;;;;28.31;75.29;98124.07;1693279;84;28103;-89
2021/06/24 11:34:48;;;;;;;28.65;18.73;;;;;;;28.40;75.09;98120.00;1690614;84;28096;-89
2021/06/24 11:37:18;;;;;;;23.30;17.85;;;;;;;28.55;74.99;98119.05;1688222;84;28086;-90
2021/06/24 11:39:46;;;;;;;27.65;19.25;;;;;;;28.59;74.65;98122.09;1682232;84;28083;-90